BKB6 KRNO-KDMN
Flight info
| Callsign | BKB6 |
|---|---|
| Flight time | N/A |
| Altitude | 35000 |
| Route | YERIN J92 PRFUM Q13 DRK J231 NABOB Q13 VERNO J86 GREBE |
| Aircraft | RJ1H/M-SDFGIRWY/LB1 |
Departure
| Time | 2026-05-01 14:20 |
|---|---|
| Airport | Reno Tahoe International Airport (KRNO) |
Arrival
| Time | N/A |
|---|---|
| Airport | Deming Municipal Airport (KDMN) |
| Time | Latitude | Longitude | Altitude | Speed | Heading |
|---|---|---|---|---|---|
| 2026-05-01 14:04 | 39.86887 | -119.70423 | 4342 ft | 0 kts | 150° |
| 2026-05-01 14:17 | 39.86886 | -119.70423 | 4345 ft | 1 kts | 153° |
| 2026-05-01 14:17 | 39.86878 | -119.70427 | 4344 ft | 2 kts | 237° |
| 2026-05-01 14:17 | 39.86896 | -119.70447 | 4342 ft | 7 kts | 351° |
| 2026-05-01 14:17 | 39.86959 | -119.70405 | 4342 ft | 15 kts | 68° |
| 2026-05-01 14:18 | 39.87018 | -119.70284 | 4342 ft | 18 kts | 57° |
| 2026-05-01 14:18 | 39.87070 | -119.70168 | 4338 ft | 5 kts | 103° |
| 2026-05-01 14:18 | 39.87060 | -119.70168 | 4339 ft | 0 kts | 229° |
| 2026-05-01 14:18 | 39.87056 | -119.70170 | 4339 ft | 1 kts | 192° |
| 2026-05-01 14:19 | 39.87053 | -119.70170 | 4339 ft | 0 kts | 179° |
| 2026-05-01 14:19 | 39.86861 | -119.70177 | 4344 ft | 62 kts | 180° |
| 2026-05-01 14:19 | 39.86213 | -119.70189 | 4351 ft | 119 kts | 181° |
| 2026-05-01 14:20 | 39.85278 | -119.70181 | 4488 ft | 149 kts | 179° |
| 2026-05-01 14:20 | 39.83445 | -119.70178 | 5321 ft | 158 kts | 177° |
| 2026-05-01 14:20 | 39.82415 | -119.69569 | 5660 ft | 178 kts | 142° |
| 2026-05-01 14:21 | 39.81370 | -119.68529 | 5779 ft | 206 kts | 143° |
| 2026-05-01 14:21 | 39.80138 | -119.67349 | 6028 ft | 234 kts | 144° |
| 2026-05-01 14:21 | 39.78772 | -119.66078 | 6772 ft | 244 kts | 143° |
| 2026-05-01 14:22 | 39.75953 | -119.63511 | 8771 ft | 251 kts | 143° |
| 2026-05-01 14:22 | 39.74510 | -119.62208 | 9747 ft | 254 kts | 143° |
| 2026-05-01 14:22 | 39.73041 | -119.60894 | 10630 ft | 259 kts | 144° |
| 2026-05-01 14:22 | 39.71530 | -119.59578 | 11445 ft | 265 kts | 144° |
| 2026-05-01 14:23 | 39.69988 | -119.58230 | 12256 ft | 270 kts | 144° |
| 2026-05-01 14:23 | 39.68419 | -119.56845 | 13057 ft | 275 kts | 144° |
| 2026-05-01 14:23 | 39.66815 | -119.55431 | 13770 ft | 284 kts | 144° |
| 2026-05-01 14:23 | 39.65135 | -119.53956 | 14269 ft | 298 kts | 144° |
| 2026-05-01 14:24 | 39.63376 | -119.52441 | 14811 ft | 307 kts | 144° |
| 2026-05-01 14:24 | 39.61590 | -119.50892 | 15450 ft | 311 kts | 144° |
| 2026-05-01 14:24 | 39.59777 | -119.49314 | 16050 ft | 316 kts | 144° |
| 2026-05-01 14:24 | 39.57941 | -119.47715 | 16648 ft | 320 kts | 144° |
| 2026-05-01 14:25 | 39.56079 | -119.46101 | 17226 ft | 324 kts | 144° |
| 2026-05-01 14:25 | 39.54190 | -119.44471 | 17791 ft | 328 kts | 144° |
| 2026-05-01 14:25 | 39.52282 | -119.42827 | 18333 ft | 332 kts | 144° |
| 2026-05-01 14:25 | 39.50347 | -119.41161 | 18758 ft | 338 kts | 144° |
| 2026-05-01 14:26 | 39.48379 | -119.39449 | 19130 ft | 343 kts | 144° |
| 2026-05-01 14:26 | 39.44385 | -119.35968 | 19967 ft | 349 kts | 144° |
| 2026-05-01 14:26 | 39.42349 | -119.34224 | 20354 ft | 352 kts | 144° |
| 2026-05-01 14:27 | 39.40298 | -119.32466 | 20735 ft | 356 kts | 145° |
| 2026-05-01 14:27 | 39.38232 | -119.30695 | 21106 ft | 358 kts | 145° |
| 2026-05-01 14:27 | 39.36142 | -119.28900 | 21477 ft | 362 kts | 145° |
| 2026-05-01 14:28 | 39.31918 | -119.25250 | 22106 ft | 368 kts | 145° |
| 2026-05-01 14:28 | 39.29774 | -119.23397 | 22390 ft | 373 kts | 144° |
| 2026-05-01 14:28 | 39.27615 | -119.21528 | 22711 ft | 375 kts | 144° |
| 2026-05-01 14:28 | 39.25441 | -119.19644 | 23033 ft | 378 kts | 144° |
| 2026-05-01 14:29 | 39.23249 | -119.17745 | 23335 ft | 381 kts | 145° |
| 2026-05-01 14:29 | 39.21043 | -119.15834 | 23645 ft | 383 kts | 144° |
| 2026-05-01 14:30 | 39.14332 | -119.10091 | 24445 ft | 388 kts | 146° |
| 2026-05-01 14:30 | 39.12083 | -119.08161 | 24679 ft | 391 kts | 146° |
| 2026-05-01 14:30 | 39.09820 | -119.06216 | 24925 ft | 392 kts | 146° |
| 2026-05-01 14:31 | 39.05283 | -119.02323 | 25510 ft | 392 kts | 146° |
| 2026-05-01 14:31 | 39.03008 | -119.00401 | 25801 ft | 391 kts | 146° |
| 2026-05-01 14:31 | 39.00763 | -118.98509 | 26087 ft | 391 kts | 147° |
| 2026-05-01 14:31 | 38.98536 | -118.96507 | 26371 ft | 391 kts | 142° |
| 2026-05-01 14:32 | 38.96430 | -118.94280 | 26570 ft | 394 kts | 137° |
| 2026-05-01 14:32 | 38.94412 | -118.91901 | 26846 ft | 394 kts | 135° |
| 2026-05-01 14:32 | 38.92440 | -118.89453 | 27091 ft | 394 kts | 134° |
| 2026-05-01 14:32 | 38.90498 | -118.86981 | 27369 ft | 393 kts | 134° |
| 2026-05-01 14:33 | 38.88556 | -118.84504 | 27650 ft | 393 kts | 134° |
| 2026-05-01 14:33 | 38.86620 | -118.82040 | 27935 ft | 392 kts | 134° |
| 2026-05-01 14:33 | 38.84674 | -118.79594 | 28208 ft | 391 kts | 135° |
| 2026-05-01 14:33 | 38.82714 | -118.77170 | 28398 ft | 392 kts | 135° |
| 2026-05-01 14:34 | 38.80746 | -118.74745 | 28635 ft | 392 kts | 135° |
| 2026-05-01 14:34 | 38.78780 | -118.72333 | 28878 ft | 392 kts | 135° |
| 2026-05-01 14:34 | 38.76807 | -118.69916 | 29119 ft | 392 kts | 135° |
| 2026-05-01 14:34 | 38.74837 | -118.67502 | 29352 ft | 392 kts | 135° |
| 2026-05-01 14:35 | 38.72870 | -118.65088 | 29519 ft | 394 kts | 135° |
| 2026-05-01 14:35 | 38.68880 | -118.60140 | 29601 ft | 405 kts | 135° |
| 2026-05-01 14:35 | 38.66838 | -118.57629 | 29757 ft | 410 kts | 135° |
| 2026-05-01 14:36 | 38.64773 | -118.55097 | 29952 ft | 411 kts | 135° |
| 2026-05-01 14:36 | 38.62709 | -118.52558 | 30161 ft | 411 kts | 135° |
| 2026-05-01 14:36 | 38.60642 | -118.50023 | 30344 ft | 411 kts | 135° |
| 2026-05-01 14:36 | 38.58581 | -118.47495 | 30515 ft | 411 kts | 135° |
| 2026-05-01 14:37 | 38.56514 | -118.44952 | 30673 ft | 412 kts | 135° |
| 2026-05-01 14:37 | 38.54456 | -118.42413 | 30821 ft | 412 kts | 136° |
| 2026-05-01 14:37 | 38.52385 | -118.39886 | 30983 ft | 412 kts | 136° |
| 2026-05-01 14:37 | 38.50309 | -118.37371 | 31139 ft | 412 kts | 136° |
| 2026-05-01 14:38 | 38.48224 | -118.34842 | 31219 ft | 415 kts | 135° |
| 2026-05-01 14:38 | 38.46142 | -118.32288 | 31356 ft | 416 kts | 136° |
| 2026-05-01 14:38 | 38.44047 | -118.29731 | 31495 ft | 416 kts | 136° |
| 2026-05-01 14:38 | 38.41952 | -118.27183 | 31620 ft | 416 kts | 136° |
| 2026-05-01 14:39 | 38.39852 | -118.24641 | 31745 ft | 416 kts | 136° |
| 2026-05-01 14:39 | 38.37752 | -118.22097 | 31888 ft | 416 kts | 136° |
| 2026-05-01 14:39 | 38.35654 | -118.19552 | 32037 ft | 417 kts | 136° |
| 2026-05-01 14:39 | 38.33556 | -118.17004 | 32186 ft | 417 kts | 136° |
| 2026-05-01 14:40 | 38.31458 | -118.14459 | 32277 ft | 417 kts | 136° |
| 2026-05-01 14:40 | 38.29356 | -118.11908 | 32405 ft | 417 kts | 136° |
| 2026-05-01 14:40 | 38.27268 | -118.09354 | 32555 ft | 417 kts | 136° |
| 2026-05-01 14:40 | 38.25171 | -118.06798 | 32720 ft | 417 kts | 136° |
| 2026-05-01 14:41 | 38.23083 | -118.04297 | 32777 ft | 420 kts | 137° |
| 2026-05-01 14:41 | 38.20954 | -118.01751 | 32909 ft | 420 kts | 136° |
| 2026-05-01 14:41 | 38.18840 | -117.99193 | 33032 ft | 420 kts | 136° |
| 2026-05-01 14:41 | 38.16726 | -117.96626 | 33183 ft | 420 kts | 136° |
| 2026-05-01 14:42 | 38.14604 | -117.94079 | 33293 ft | 420 kts | 137° |
| 2026-05-01 14:42 | 38.12470 | -117.91538 | 33413 ft | 420 kts | 137° |
| 2026-05-01 14:42 | 38.10337 | -117.89001 | 33556 ft | 420 kts | 137° |
| 2026-05-01 14:42 | 38.08211 | -117.86449 | 33681 ft | 419 kts | 136° |
| 2026-05-01 14:43 | 38.06111 | -117.83894 | 33844 ft | 418 kts | 137° |
| 2026-05-01 14:43 | 38.04008 | -117.81339 | 33964 ft | 418 kts | 137° |
| 2026-05-01 14:43 | 38.01889 | -117.78816 | 34062 ft | 418 kts | 139° |
| 2026-05-01 14:44 | 37.97363 | -117.74217 | 34257 ft | 416 kts | 147° |
| 2026-05-01 14:44 | 37.92596 | -117.70092 | 34457 ft | 415 kts | 149° |
| 2026-05-01 14:44 | 37.90193 | -117.68079 | 34588 ft | 413 kts | 150° |
| 2026-05-01 14:45 | 37.87807 | -117.66070 | 34698 ft | 412 kts | 149° |
| 2026-05-01 14:45 | 37.83064 | -117.61993 | 34872 ft | 412 kts | 149° |
| 2026-05-01 14:46 | 37.78359 | -117.57916 | 35003 ft | 406 kts | 149° |
| 2026-05-01 14:46 | 37.71396 | -117.51936 | 35033 ft | 402 kts | 150° |
| 2026-05-01 14:47 | 37.66781 | -117.47998 | 35049 ft | 404 kts | 149° |
| 2026-05-01 14:48 | 37.59788 | -117.41963 | 35043 ft | 408 kts | 149° |
| 2026-05-01 14:48 | 37.52719 | -117.35968 | 35032 ft | 408 kts | 149° |
| 2026-05-01 14:49 | 37.43299 | -117.27942 | 35026 ft | 409 kts | 150° |
| 2026-05-01 14:50 | 37.33861 | -117.19902 | 35036 ft | 410 kts | 149° |
| 2026-05-01 14:51 | 37.26741 | -117.13879 | 35029 ft | 413 kts | 149° |
| 2026-05-01 14:52 | 37.19598 | -117.07831 | 35010 ft | 413 kts | 149° |
| 2026-05-01 14:53 | 37.12431 | -117.01823 | 35018 ft | 413 kts | 150° |
| 2026-05-01 14:53 | 37.07656 | -116.97807 | 35001 ft | 414 kts | 149° |
| 2026-05-01 14:54 | 37.02896 | -116.93763 | 34990 ft | 413 kts | 150° |
| 2026-05-01 14:54 | 36.98150 | -116.89739 | 34986 ft | 412 kts | 150° |
| 2026-05-01 14:55 | 36.93387 | -116.85766 | 35012 ft | 413 kts | 149° |
| 2026-05-01 14:55 | 36.88594 | -116.81780 | 34976 ft | 414 kts | 149° |
| 2026-05-01 14:56 | 36.83930 | -116.77645 | 34962 ft | 416 kts | 136° |
| 2026-05-01 14:56 | 36.80120 | -116.72151 | 34979 ft | 416 kts | 131° |
| 2026-05-01 14:57 | 36.76637 | -116.66378 | 34963 ft | 417 kts | 122° |
| 2026-05-01 14:57 | 36.72510 | -116.56834 | 34958 ft | 417 kts | 115° |
| 2026-05-01 14:58 | 36.69927 | -116.50397 | 34931 ft | 419 kts | 115° |
| 2026-05-01 14:58 | 36.67261 | -116.43944 | 34937 ft | 419 kts | 116° |
| 2026-05-01 14:59 | 36.64553 | -116.37518 | 34944 ft | 419 kts | 116° |
| 2026-05-01 14:59 | 36.61840 | -116.31097 | 34938 ft | 419 kts | 116° |
| 2026-05-01 15:00 | 36.57765 | -116.21468 | 34946 ft | 420 kts | 116° |
| 2026-05-01 15:01 | 36.55036 | -116.15037 | 34930 ft | 420 kts | 116° |
| 2026-05-01 15:01 | 36.52317 | -116.08591 | 34950 ft | 421 kts | 116° |
| 2026-05-01 15:02 | 36.49594 | -116.02133 | 34957 ft | 422 kts | 116° |
| 2026-05-01 15:02 | 36.46877 | -115.95684 | 34976 ft | 421 kts | 116° |
| 2026-05-01 15:03 | 36.44147 | -115.89221 | 34986 ft | 424 kts | 116° |
| 2026-05-01 15:03 | 36.41369 | -115.82760 | 34970 ft | 424 kts | 117° |
| 2026-05-01 15:04 | 36.38594 | -115.76306 | 35009 ft | 424 kts | 116° |
| 2026-05-01 15:04 | 36.35837 | -115.69847 | 34952 ft | 424 kts | 117° |
| 2026-05-01 15:05 | 36.33107 | -115.63450 | 35027 ft | 422 kts | 116° |
| 2026-05-01 15:05 | 36.30337 | -115.56992 | 35010 ft | 425 kts | 117° |
| 2026-05-01 15:06 | 36.27540 | -115.50537 | 34966 ft | 425 kts | 117° |
| 2026-05-01 15:06 | 36.24749 | -115.44078 | 34996 ft | 426 kts | 117° |
| 2026-05-01 15:07 | 36.21948 | -115.37612 | 34995 ft | 426 kts | 117° |
| 2026-05-01 15:07 | 36.19155 | -115.31141 | 35054 ft | 426 kts | 117° |
| 2026-05-01 15:08 | 36.16360 | -115.24648 | 35038 ft | 428 kts | 117° |
| 2026-05-01 15:08 | 36.14021 | -115.19237 | 35055 ft | 429 kts | 117° |
| 2026-05-01 15:09 | 36.11165 | -115.12767 | 35044 ft | 428 kts | 117° |
| 2026-05-01 15:09 | 36.08354 | -115.06286 | 35050 ft | 427 kts | 117° |
| 2026-05-01 15:10 | 36.05523 | -114.99821 | 35054 ft | 428 kts | 118° |
| 2026-05-01 15:10 | 36.01246 | -114.90119 | 35041 ft | 429 kts | 117° |
| 2026-05-01 15:11 | 35.96716 | -114.80597 | 35007 ft | 428 kts | 123° |
| 2026-05-01 15:12 | 35.93523 | -114.74565 | 35023 ft | 426 kts | 123° |
| 2026-05-01 15:12 | 35.88617 | -114.65403 | 34990 ft | 427 kts | 124° |
| 2026-05-01 15:14 | 35.80444 | -114.49942 | 34897 ft | 437 kts | 124° |
| 2026-05-01 15:14 | 35.75396 | -114.40435 | 34905 ft | 447 kts | 123° |
| 2026-05-01 15:15 | 35.68499 | -114.27504 | 34897 ft | 460 kts | 123° |
| 2026-05-01 15:16 | 35.61378 | -114.14203 | 34872 ft | 470 kts | 123° |
| 2026-05-01 15:18 | 35.52336 | -113.97265 | 34952 ft | 479 kts | 123° |
| 2026-05-01 15:19 | 35.44953 | -113.83608 | 34981 ft | 481 kts | 124° |
| 2026-05-01 15:19 | 35.39440 | -113.73367 | 34987 ft | 479 kts | 124° |
| 2026-05-01 15:20 | 35.33879 | -113.63184 | 34954 ft | 480 kts | 124° |
| 2026-05-01 15:21 | 35.30179 | -113.56382 | 34906 ft | 479 kts | 124° |
| 2026-05-01 15:21 | 35.26486 | -113.49596 | 34873 ft | 479 kts | 124° |
| 2026-05-01 15:22 | 35.20946 | -113.39421 | 34899 ft | 480 kts | 124° |
| 2026-05-01 15:22 | 35.17248 | -113.32615 | 34900 ft | 481 kts | 124° |
| 2026-05-01 15:23 | 35.13523 | -113.25830 | 34882 ft | 480 kts | 125° |
| 2026-05-01 15:23 | 35.09783 | -113.19087 | 34897 ft | 479 kts | 125° |
| 2026-05-01 15:24 | 35.06083 | -113.12322 | 34895 ft | 479 kts | 125° |
| 2026-05-01 15:24 | 35.02371 | -113.05623 | 34910 ft | 480 kts | 125° |
| 2026-05-01 15:25 | 34.98622 | -112.98862 | 34912 ft | 481 kts | 125° |
| 2026-05-01 15:25 | 34.94886 | -112.92112 | 34903 ft | 480 kts | 125° |
| 2026-05-01 15:26 | 34.91158 | -112.85368 | 34897 ft | 479 kts | 125° |
| 2026-05-01 15:26 | 34.87431 | -112.78621 | 34903 ft | 480 kts | 125° |
| 2026-05-01 15:27 | 34.83678 | -112.71893 | 34893 ft | 481 kts | 126° |
| 2026-05-01 15:28 | 34.78037 | -112.61776 | 34890 ft | 481 kts | 125° |
| 2026-05-01 15:28 | 34.74262 | -112.55060 | 34907 ft | 481 kts | 126° |
| 2026-05-01 15:29 | 34.70580 | -112.48271 | 35090 ft | 481 kts | 119° |
| 2026-05-01 15:29 | 34.69105 | -112.44675 | 35114 ft | 482 kts | 113° |
| 2026-05-01 15:30 | 34.64381 | -112.29411 | 35077 ft | 483 kts | 109° |
| 2026-05-01 15:31 | 34.57146 | -112.06611 | 34947 ft | 483 kts | 110° |
| 2026-05-01 15:32 | 34.52250 | -111.91426 | 34914 ft | 483 kts | 111° |
| 2026-05-01 15:34 | 34.44948 | -111.68688 | 34899 ft | 482 kts | 111° |